Fairbanks, AK

4:33 AM AKST on February 28, 2015 (GMT -0900)
AKDOT 14th Avenue @ Eielson Street | Change Station
CLOSE
Current Station
Personal Weather Station
Location: Fairbanks, AK
Elevation: 482 ft
Nearby Weather Stations
Active Advisory: Winter Weather Advisory Active Notice: Record Report

Elev 482 ft 64.84 °N, 147.71 °W | Updated 40 minutes ago

Clear
Clear
17 °F
Feels Like 17 °F
N
0
Wind Variable Wind from West
Gusts 3.0 mph

Today
High -- | Low -- °F
--% Chance of Precip.
Yesterday
High -- | Low -- °F
Precip. -- in
8:03 AM 6:04 PM
Waxing Gibbous, 77% visible
Pressure 30.22 in
Visibility 10.0 miles
Clouds Clear
Windchill 17 °F
Dew Point 13 °F
Humidity 86%
Rainfall -999.00 in
Snow Depth Not available.
UV 0 out of 12
Pollen Not available.
Air Quality Not available.
Flu Activity Not available.
METAR PAFB 281256Z AUTO 07003KT 10SM CLR M09/M12 A3019 RMK SLP234 T10941117 $ VIA AUTODIAL

More Conditions Fewer Conditions

Pressure 30.22 in
Visibility 10.0 miles
Clouds Clear
Windchill 17 °F
Dew Point 13 °F
Humidity 86%
Rainfall -999.00 in
Snow Depth Not available.
UV 0 out of 12
Pollen Not available.
Air Quality Not available.
Flu Activity Not available.
METAR PAFB 281256Z AUTO 07003KT 10SM CLR M09/M12 A3019 RMK SLP234 T10941117 $ VIA AUTODIAL

More Conditions Fewer Conditions

10-Day Weather Forecast

Almanac

Astronomy

Feb. 28, 2015 Rise Set
Actual Time
Civil Twilight
Nautical Twilight
Astronomical Twilight
Moon
Length of Visible Light
Length of Day
Tomorrow will be .
, % of the Moon is Illuminated

Today's Extremes

State Highs State Lows

Community

WunderPhotos

Upload Photos

1,801,010 photos uploaded!

WunderBlogs® & News

Nearby

Air Quality

  Air Quality AQ Index Pollutant
Not available.

Snow Depth

Station Depth Elevation

Earthquake Activity

City Distance Mag. Time & Date
Minimum magnitude displayed is 2.5.

Coastal Water Temperatures

Place Temperature

Nearby Weather Stations

Winter Weather Advisory
Statement as of 4:26 AM AKST on February 28, 2015

... Winter Weather Advisory now in effect from 3 PM this afternoon
to 6 am akst Sunday...

The Winter Weather Advisory for snow... blowing snow... and winds
is now in effect from 3 PM this afternoon to 6 am akst Sunday.

* Blowing snow... reducing visibility to one half mile at times.

* Snow... around 3 inches.

* Winds... west to southwest 20 to 30 mph with local gusts to 45
mph.

* Timing... winds will increase rapidly towards evening with snow
and blowing snow developing. Strong winds... snow... and blowing
snow will continue through the evening. Conditions will improve
after midnight tonight as winds diminish and snow ends.

* Impacts... visibility will be greatly reduced and snow will
accumulate into drifts. Whiteout conditions may occur. Travel
and outdoor activities will be difficult.

Precautionary/preparedness actions...

A Winter Weather Advisory means that one or more winter weather
hazards are expected to cause travel difficulties.